sensor_id;sensor_type;location;lat;lon;timestamp;P1;durP1;ratioP1;P2;durP2;ratioP2
50717;SDS011;60557;51.350;12.410;2023-04-28T00:01:35;7.65;;;4.03;;
50717;SDS011;60557;51.350;12.410;2023-04-28T00:04:01;8.30;;;3.50;;
50717;SDS011;60557;51.350;12.410;2023-04-28T00:06:27;7.22;;;3.33;;
50717;SDS011;60557;51.350;12.410;2023-04-28T00:08:54;6.60;;;3.78;;
50717;SDS011;60557;51.350;12.410;2023-04-28T00:11:20;8.60;;;3.55;;
50717;SDS011;60557;51.350;12.410;2023-04-28T00:13:47;7.80;;;3.60;;
50717;SDS011;60557;51.350;12.410;2023-04-28T00:16:13;16.00;;;3.97;;
50717;SDS011;60557;51.350;12.410;2023-04-28T00:18:41;5.47;;;3.53;;
50717;SDS011;60557;51.350;12.410;2023-04-28T00:21:07;8.48;;;4.20;;
50717;SDS011;60557;51.350;12.410;2023-04-28T00:23:33;11.43;;;4.38;;
50717;SDS011;60557;51.350;12.410;2023-04-28T00:26:01;9.35;;;3.88;;
50717;SDS011;60557;51.350;12.410;2023-04-28T00:28:30;9.88;;;4.25;;
50717;SDS011;60557;51.350;12.410;2023-04-28T00:30:56;8.43;;;4.05;;
50717;SDS011;60557;51.350;12.410;2023-04-28T00:33:22;9.75;;;4.22;;
50717;SDS011;60557;51.350;12.410;2023-04-28T00:35:48;6.28;;;4.00;;
50717;SDS011;60557;51.350;12.410;2023-04-28T00:38:14;7.18;;;4.20;;
50717;SDS011;60557;51.350;12.410;2023-04-28T00:40:40;12.10;;;4.05;;
50717;SDS011;60557;51.350;12.410;2023-04-28T00:43:06;7.50;;;4.07;;
50717;SDS011;60557;51.350;12.410;2023-04-28T00:45:32;8.30;;;3.80;;
50717;SDS011;60557;51.350;12.410;2023-04-28T00:47:58;7.95;;;4.05;;
50717;SDS011;60557;51.350;12.410;2023-04-28T00:50:25;8.43;;;4.35;;
50717;SDS011;60557;51.350;12.410;2023-04-28T00:52:51;7.90;;;4.13;;
50717;SDS011;60557;51.350;12.410;2023-04-28T00:55:17;12.50;;;4.28;;
50717;SDS011;60557;51.350;12.410;2023-04-28T00:57:44;12.07;;;4.20;;
50717;SDS011;60557;51.350;12.410;2023-04-28T01:00:10;12.05;;;4.05;;
50717;SDS011;60557;51.350;12.410;2023-04-28T01:02:37;11.23;;;4.63;;
50717;SDS011;60557;51.350;12.410;2023-04-28T01:05:03;5.32;;;3.97;;
50717;SDS011;60557;51.350;12.410;2023-04-28T01:07:29;11.10;;;4.30;;
50717;SDS011;60557;51.350;12.410;2023-04-28T01:09:55;7.95;;;4.35;;
50717;SDS011;60557;51.350;12.410;2023-04-28T01:12:21;8.80;;;4.47;;
50717;SDS011;60557;51.350;12.410;2023-04-28T01:14:50;7.40;;;4.40;;
50717;SDS011;60557;51.350;12.410;2023-04-28T01:17:16;6.57;;;4.03;;
50717;SDS011;60557;51.350;12.410;2023-04-28T01:19:43;11.70;;;4.90;;
50717;SDS011;60557;51.350;12.410;2023-04-28T01:22:11;7.25;;;3.70;;
50717;SDS011;60557;51.350;12.410;2023-04-28T01:24:40;7.75;;;4.25;;
50717;SDS011;60557;51.350;12.410;2023-04-28T01:27:06;12.65;;;4.75;;
50717;SDS011;60557;51.350;12.410;2023-04-28T01:29:32;5.93;;;4.55;;
50717;SDS011;60557;51.350;12.410;2023-04-28T01:31:58;8.02;;;4.20;;
50717;SDS011;60557;51.350;12.410;2023-04-28T01:34:25;9.10;;;4.43;;
50717;SDS011;60557;51.350;12.410;2023-04-28T01:36:51;13.75;;;5.72;;
50717;SDS011;60557;51.350;12.410;2023-04-28T01:39:17;11.75;;;5.25;;
50717;SDS011;60557;51.350;12.410;2023-04-28T01:41:43;8.57;;;4.47;;
50717;SDS011;60557;51.350;12.410;2023-04-28T01:44:10;11.40;;;5.43;;
50717;SDS011;60557;51.350;12.410;2023-04-28T01:46:37;9.32;;;4.22;;
50717;SDS011;60557;51.350;12.410;2023-04-28T01:49:05;8.20;;;4.50;;
50717;SDS011;60557;51.350;12.410;2023-04-28T01:51:33;9.20;;;5.10;;
50717;SDS011;60557;51.350;12.410;2023-04-28T01:54:02;6.85;;;4.00;;
50717;SDS011;60557;51.350;12.410;2023-04-28T01:56:28;9.10;;;4.85;;
50717;SDS011;60557;51.350;12.410;2023-04-28T01:58:54;10.00;;;4.85;;
50717;SDS011;60557;51.350;12.410;2023-04-28T02:01:20;9.43;;;5.13;;
50717;SDS011;60557;51.350;12.410;2023-04-28T02:03:48;9.35;;;4.85;;
50717;SDS011;60557;51.350;12.410;2023-04-28T02:06:15;14.52;;;5.45;;
50717;SDS011;60557;51.350;12.410;2023-04-28T02:08:41;9.80;;;5.20;;
50717;SDS011;60557;51.350;12.410;2023-04-28T02:11:09;9.35;;;5.25;;
50717;SDS011;60557;51.350;12.410;2023-04-28T02:13:35;9.23;;;5.18;;
50717;SDS011;60557;51.350;12.410;2023-04-28T02:16:04;12.88;;;4.65;;
50717;SDS011;60557;51.350;12.410;2023-04-28T02:18:30;8.18;;;4.75;;
50717;SDS011;60557;51.350;12.410;2023-04-28T02:20:56;12.30;;;5.10;;
50717;SDS011;60557;51.350;12.410;2023-04-28T02:23:22;7.50;;;4.78;;
50717;SDS011;60557;51.350;12.410;2023-04-28T02:25:48;8.00;;;5.70;;
50717;SDS011;60557;51.350;12.410;2023-04-28T02:28:17;12.07;;;6.45;;
50717;SDS011;60557;51.350;12.410;2023-04-28T02:30:43;9.68;;;5.22;;
50717;SDS011;60557;51.350;12.410;2023-04-28T02:33:11;14.93;;;5.28;;
50717;SDS011;60557;51.350;12.410;2023-04-28T02:35:37;8.55;;;5.60;;
50717;SDS011;60557;51.350;12.410;2023-04-28T02:38:03;9.57;;;5.53;;
50717;SDS011;60557;51.350;12.410;2023-04-28T02:40:32;11.10;;;6.00;;
50717;SDS011;60557;51.350;12.410;2023-04-28T02:42:58;11.45;;;6.65;;
50717;SDS011;60557;51.350;12.410;2023-04-28T02:45:24;12.65;;;6.60;;
50717;SDS011;60557;51.350;12.410;2023-04-28T02:47:50;11.00;;;5.93;;
50717;SDS011;60557;51.350;12.410;2023-04-28T02:50:17;7.45;;;5.25;;
50717;SDS011;60557;51.350;12.410;2023-04-28T02:52:43;9.27;;;5.90;;
50717;SDS011;60557;51.350;12.410;2023-04-28T02:55:09;11.38;;;6.68;;
50717;SDS011;60557;51.350;12.410;2023-04-28T02:57:37;13.73;;;6.97;;
50717;SDS011;60557;51.350;12.410;2023-04-28T03:00:03;9.20;;;5.53;;
50717;SDS011;60557;51.350;12.410;2023-04-28T03:02:30;8.82;;;5.50;;
50717;SDS011;60557;51.350;12.410;2023-04-28T03:04:56;11.07;;;6.43;;
50717;SDS011;60557;51.350;12.410;2023-04-28T03:07:24;9.75;;;6.28;;
50717;SDS011;60557;51.350;12.410;2023-04-28T03:09:50;12.00;;;5.60;;
50717;SDS011;60557;51.350;12.410;2023-04-28T03:12:16;10.98;;;6.13;;
50717;SDS011;60557;51.350;12.410;2023-04-28T03:14:42;13.15;;;5.70;;
50717;SDS011;60557;51.350;12.410;2023-04-28T03:17:11;11.50;;;7.25;;
50717;SDS011;60557;51.350;12.410;2023-04-28T03:19:38;12.43;;;6.75;;
50717;SDS011;60557;51.350;12.410;2023-04-28T03:22:04;9.70;;;5.68;;
50717;SDS011;60557;51.350;12.410;2023-04-28T03:24:30;12.75;;;7.30;;
50717;SDS011;60557;51.350;12.410;2023-04-28T03:26:56;15.20;;;6.40;;
50717;SDS011;60557;51.350;12.410;2023-04-28T03:29:22;10.48;;;6.53;;
50717;SDS011;60557;51.350;12.410;2023-04-28T03:31:52;13.25;;;7.43;;
50717;SDS011;60557;51.350;12.410;2023-04-28T03:36:47;9.93;;;6.60;;
50717;SDS011;60557;51.350;12.410;2023-04-28T03:39:15;16.77;;;6.95;;
50717;SDS011;60557;51.350;12.410;2023-04-28T03:41:41;8.73;;;6.35;;
50717;SDS011;60557;51.350;12.410;2023-04-28T03:44:07;12.63;;;7.18;;
50717;SDS011;60557;51.350;12.410;2023-04-28T03:46:33;12.05;;;7.65;;
50717;SDS011;60557;51.350;12.410;2023-04-28T03:49:00;13.15;;;7.38;;
50717;SDS011;60557;51.350;12.410;2023-04-28T03:51:28;11.23;;;6.80;;
50717;SDS011;60557;51.350;12.410;2023-04-28T03:53:59;14.63;;;7.45;;
50717;SDS011;60557;51.350;12.410;2023-04-28T03:56:25;14.88;;;7.97;;
50717;SDS011;60557;51.350;12.410;2023-04-28T03:58:51;14.93;;;7.15;;
50717;SDS011;60557;51.350;12.410;2023-04-28T04:01:17;17.30;;;7.57;;
50717;SDS011;60557;51.350;12.410;2023-04-28T04:03:43;9.40;;;7.25;;
50717;SDS011;60557;51.350;12.410;2023-04-28T04:06:09;15.20;;;7.40;;
50717;SDS011;60557;51.350;12.410;2023-04-28T04:08:35;16.25;;;7.15;;
50717;SDS011;60557;51.350;12.410;2023-04-28T04:11:01;12.43;;;7.47;;
50717;SDS011;60557;51.350;12.410;2023-04-28T04:13:30;14.07;;;7.82;;
50717;SDS011;60557;51.350;12.410;2023-04-28T04:15:56;16.50;;;7.65;;
50717;SDS011;60557;51.350;12.410;2023-04-28T04:18:22;14.23;;;7.60;;
50717;SDS011;60557;51.350;12.410;2023-04-28T04:20:48;8.98;;;6.63;;
50717;SDS011;60557;51.350;12.410;2023-04-28T04:23:14;20.00;;;9.02;;
50717;SDS011;60557;51.350;12.410;2023-04-28T04:25:43;18.48;;;7.95;;
50717;SDS011;60557;51.350;12.410;2023-04-28T04:28:09;17.27;;;7.68;;
50717;SDS011;60557;51.350;12.410;2023-04-28T04:30:35;14.88;;;7.03;;
50717;SDS011;60557;51.350;12.410;2023-04-28T04:33:04;15.18;;;7.80;;
50717;SDS011;60557;51.350;12.410;2023-04-28T04:35:32;25.30;;;7.68;;
50717;SDS011;60557;51.350;12.410;2023-04-28T04:38:01;10.80;;;6.80;;
50717;SDS011;60557;51.350;12.410;2023-04-28T04:40:27;14.82;;;7.75;;
50717;SDS011;60557;51.350;12.410;2023-04-28T04:42:54;11.45;;;6.88;;
50717;SDS011;60557;51.350;12.410;2023-04-28T04:45:20;10.13;;;7.00;;
50717;SDS011;60557;51.350;12.410;2023-04-28T04:47:46;14.15;;;7.03;;
50717;SDS011;60557;51.350;12.410;2023-04-28T04:50:12;15.57;;;7.15;;
50717;SDS011;60557;51.350;12.410;2023-04-28T04:52:38;14.70;;;7.22;;
50717;SDS011;60557;51.350;12.410;2023-04-28T04:55:05;11.32;;;6.97;;
50717;SDS011;60557;51.350;12.410;2023-04-28T04:57:31;14.43;;;7.22;;
50717;SDS011;60557;51.350;12.410;2023-04-28T04:59:57;10.93;;;7.10;;
50717;SDS011;60557;51.350;12.410;2023-04-28T05:02:23;13.32;;;7.85;;
50717;SDS011;60557;51.350;12.410;2023-04-28T05:04:49;13.27;;;7.45;;
50717;SDS011;60557;51.350;12.410;2023-04-28T05:07:15;11.00;;;7.38;;
50717;SDS011;60557;51.350;12.410;2023-04-28T05:09:42;10.88;;;7.35;;
50717;SDS011;60557;51.350;12.410;2023-04-28T05:12:08;13.25;;;7.43;;
50717;SDS011;60557;51.350;12.410;2023-04-28T05:14:34;15.18;;;6.97;;
50717;SDS011;60557;51.350;12.410;2023-04-28T05:17:02;12.63;;;6.88;;
50717;SDS011;60557;51.350;12.410;2023-04-28T05:19:28;12.00;;;7.43;;
50717;SDS011;60557;51.350;12.410;2023-04-28T05:21:54;11.07;;;7.57;;
50717;SDS011;60557;51.350;12.410;2023-04-28T05:24:21;16.20;;;8.45;;
50717;SDS011;60557;51.350;12.410;2023-04-28T05:26:50;14.00;;;7.90;;
50717;SDS011;60557;51.350;12.410;2023-04-28T05:29:18;10.23;;;6.78;;
50717;SDS011;60557;51.350;12.410;2023-04-28T05:31:44;11.52;;;6.65;;
50717;SDS011;60557;51.350;12.410;2023-04-28T05:34:10;13.50;;;6.60;;
50717;SDS011;60557;51.350;12.410;2023-04-28T05:36:36;13.18;;;7.32;;
50717;SDS011;60557;51.350;12.410;2023-04-28T05:39:02;12.32;;;7.30;;
50717;SDS011;60557;51.350;12.410;2023-04-28T05:41:28;14.93;;;7.03;;
50717;SDS011;60557;51.350;12.410;2023-04-28T05:43:54;12.85;;;7.38;;
50717;SDS011;60557;51.350;12.410;2023-04-28T05:46:21;13.05;;;8.10;;
50717;SDS011;60557;51.350;12.410;2023-04-28T05:48:49;14.05;;;7.82;;
50717;SDS011;60557;51.350;12.410;2023-04-28T05:51:15;12.13;;;7.15;;
50717;SDS011;60557;51.350;12.410;2023-04-28T05:53:41;11.57;;;7.50;;
50717;SDS011;60557;51.350;12.410;2023-04-28T05:56:07;16.40;;;6.95;;
50717;SDS011;60557;51.350;12.410;2023-04-28T05:58:33;12.75;;;6.68;;
50717;SDS011;60557;51.350;12.410;2023-04-28T06:00:59;19.92;;;7.47;;
50717;SDS011;60557;51.350;12.410;2023-04-28T06:03:26;13.30;;;7.53;;
50717;SDS011;60557;51.350;12.410;2023-04-28T06:05:52;13.18;;;6.40;;
50717;SDS011;60557;51.350;12.410;2023-04-28T06:08:18;11.15;;;6.30;;
50717;SDS011;60557;51.350;12.410;2023-04-28T06:10:44;12.55;;;6.88;;
50717;SDS011;60557;51.350;12.410;2023-04-28T06:13:10;10.55;;;6.40;;
50717;SDS011;60557;51.350;12.410;2023-04-28T06:15:36;13.75;;;7.22;;
50717;SDS011;60557;51.350;12.410;2023-04-28T06:18:03;13.27;;;6.65;;
50717;SDS011;60557;51.350;12.410;2023-04-28T06:20:33;11.73;;;6.25;;
50717;SDS011;60557;51.350;12.410;2023-04-28T06:23:00;10.18;;;5.50;;
50717;SDS011;60557;51.350;12.410;2023-04-28T06:25:27;8.65;;;5.80;;
50717;SDS011;60557;51.350;12.410;2023-04-28T06:27:53;13.40;;;6.00;;
50717;SDS011;60557;51.350;12.410;2023-04-28T06:30:20;16.10;;;7.30;;
50717;SDS011;60557;51.350;12.410;2023-04-28T06:32:47;17.08;;;6.53;;
50717;SDS011;60557;51.350;12.410;2023-04-28T06:35:15;9.98;;;5.28;;
50717;SDS011;60557;51.350;12.410;2023-04-28T06:37:42;11.32;;;5.85;;
50717;SDS011;60557;51.350;12.410;2023-04-28T06:40:08;9.82;;;6.63;;
50717;SDS011;60557;51.350;12.410;2023-04-28T06:42:37;10.38;;;6.82;;
50717;SDS011;60557;51.350;12.410;2023-04-28T06:45:03;11.23;;;6.25;;
50717;SDS011;60557;51.350;12.410;2023-04-28T06:47:29;12.93;;;6.63;;
50717;SDS011;60557;51.350;12.410;2023-04-28T06:49:55;13.98;;;6.32;;
50717;SDS011;60557;51.350;12.410;2023-04-28T06:52:25;11.48;;;6.32;;
50717;SDS011;60557;51.350;12.410;2023-04-28T06:54:53;10.13;;;6.65;;
50717;SDS011;60557;51.350;12.410;2023-04-28T06:57:19;16.52;;;5.85;;
50717;SDS011;60557;51.350;12.410;2023-04-28T06:59:48;16.40;;;7.15;;
50717;SDS011;60557;51.350;12.410;2023-04-28T07:02:14;13.63;;;6.50;;
50717;SDS011;60557;51.350;12.410;2023-04-28T07:04:40;13.02;;;6.30;;
50717;SDS011;60557;51.350;12.410;2023-04-28T07:07:06;12.52;;;6.07;;
50717;SDS011;60557;51.350;12.410;2023-04-28T07:09:33;11.88;;;6.20;;
50717;SDS011;60557;51.350;12.410;2023-04-28T07:12:02;12.65;;;6.20;;
50717;SDS011;60557;51.350;12.410;2023-04-28T07:14:28;12.82;;;6.57;;
50717;SDS011;60557;51.350;12.410;2023-04-28T07:16:55;10.45;;;6.20;;
50717;SDS011;60557;51.350;12.410;2023-04-28T07:19:23;10.55;;;5.72;;
50717;SDS011;60557;51.350;12.410;2023-04-28T07:21:49;14.13;;;7.35;;
50717;SDS011;60557;51.350;12.410;2023-04-28T07:24:15;16.55;;;6.60;;
50717;SDS011;60557;51.350;12.410;2023-04-28T07:26:41;11.15;;;5.97;;
50717;SDS011;60557;51.350;12.410;2023-04-28T07:29:07;13.63;;;5.90;;
50717;SDS011;60557;51.350;12.410;2023-04-28T07:31:34;10.52;;;6.25;;
50717;SDS011;60557;51.350;12.410;2023-04-28T07:34:00;14.20;;;6.30;;
50717;SDS011;60557;51.350;12.410;2023-04-28T07:36:26;9.18;;;5.65;;
50717;SDS011;60557;51.350;12.410;2023-04-28T07:38:52;14.13;;;6.55;;
50717;SDS011;60557;51.350;12.410;2023-04-28T07:41:18;11.77;;;5.18;;
50717;SDS011;60557;51.350;12.410;2023-04-28T07:43:45;16.92;;;6.45;;
50717;SDS011;60557;51.350;12.410;2023-04-28T07:46:11;13.55;;;5.35;;
50717;SDS011;60557;51.350;12.410;2023-04-28T07:48:37;11.07;;;6.20;;
50717;SDS011;60557;51.350;12.410;2023-04-28T07:51:03;12.30;;;5.97;;
50717;SDS011;60557;51.350;12.410;2023-04-28T07:53:32;22.23;;;5.95;;
50717;SDS011;60557;51.350;12.410;2023-04-28T07:55:58;12.57;;;5.45;;
50717;SDS011;60557;51.350;12.410;2023-04-28T07:58:24;11.82;;;5.82;;
50717;SDS011;60557;51.350;12.410;2023-04-28T08:00:50;16.38;;;5.70;;
50717;SDS011;60557;51.350;12.410;2023-04-28T08:03:16;12.40;;;5.70;;
50717;SDS011;60557;51.350;12.410;2023-04-28T08:05:42;9.02;;;5.50;;
50717;SDS011;60557;51.350;12.410;2023-04-28T08:08:09;13.70;;;5.65;;
50717;SDS011;60557;51.350;12.410;2023-04-28T08:10:35;13.68;;;5.55;;
50717;SDS011;60557;51.350;12.410;2023-04-28T08:13:04;10.38;;;5.28;;
50717;SDS011;60557;51.350;12.410;2023-04-28T08:15:30;12.50;;;5.60;;
50717;SDS011;60557;51.350;12.410;2023-04-28T08:17:58;12.10;;;5.18;;
50717;SDS011;60557;51.350;12.410;2023-04-28T08:20:25;13.00;;;5.80;;
50717;SDS011;60557;51.350;12.410;2023-04-28T08:22:51;16.67;;;5.78;;
50717;SDS011;60557;51.350;12.410;2023-04-28T08:25:17;12.27;;;5.13;;
50717;SDS011;60557;51.350;12.410;2023-04-28T08:27:43;16.92;;;5.43;;
50717;SDS011;60557;51.350;12.410;2023-04-28T08:30:09;15.60;;;5.10;;
50717;SDS011;60557;51.350;12.410;2023-04-28T08:32:36;8.68;;;4.43;;
50717;SDS011;60557;51.350;12.410;2023-04-28T08:35:02;12.20;;;5.03;;
50717;SDS011;60557;51.350;12.410;2023-04-28T08:37:28;16.08;;;5.35;;
50717;SDS011;60557;51.350;12.410;2023-04-28T08:39:55;11.13;;;5.22;;
50717;SDS011;60557;51.350;12.410;2023-04-28T08:42:28;11.63;;;4.93;;
50717;SDS011;60557;51.350;12.410;2023-04-28T08:44:55;8.65;;;4.10;;
50717;SDS011;60557;51.350;12.410;2023-04-28T08:47:23;11.65;;;5.00;;
50717;SDS011;60557;51.350;12.410;2023-04-28T08:49:51;11.63;;;4.50;;
50717;SDS011;60557;51.350;12.410;2023-04-28T08:52:17;14.57;;;4.75;;
50717;SDS011;60557;51.350;12.410;2023-04-28T08:54:44;12.93;;;4.35;;
50717;SDS011;60557;51.350;12.410;2023-04-28T08:57:12;12.77;;;4.82;;
50717;SDS011;60557;51.350;12.410;2023-04-28T08:59:39;11.80;;;4.93;;
50717;SDS011;60557;51.350;12.410;2023-04-28T09:02:08;9.57;;;4.70;;
50717;SDS011;60557;51.350;12.410;2023-04-28T09:04:37;11.73;;;4.77;;
50717;SDS011;60557;51.350;12.410;2023-04-28T09:07:09;9.23;;;4.10;;
50717;SDS011;60557;51.350;12.410;2023-04-28T09:09:35;7.90;;;4.53;;
50717;SDS011;60557;51.350;12.410;2023-04-28T09:12:04;6.57;;;4.05;;
50717;SDS011;60557;51.350;12.410;2023-04-28T09:14:31;9.93;;;4.65;;
50717;SDS011;60557;51.350;12.410;2023-04-28T09:16:58;9.05;;;4.03;;
50717;SDS011;60557;51.350;12.410;2023-04-28T09:19:33;12.60;;;4.78;;
50717;SDS011;60557;51.350;12.410;2023-04-28T09:22:03;10.55;;;4.53;;
50717;SDS011;60557;51.350;12.410;2023-04-28T09:27:02;8.40;;;4.28;;
50717;SDS011;60557;51.350;12.410;2023-04-28T09:29:29;19.98;;;4.53;;
50717;SDS011;60557;51.350;12.410;2023-04-28T09:32:15;10.48;;;5.13;;
50717;SDS011;60557;51.350;12.410;2023-04-28T09:34:45;12.60;;;4.85;;
50717;SDS011;60557;51.350;12.410;2023-04-28T09:39:38;9.23;;;4.68;;
50717;SDS011;60557;51.350;12.410;2023-04-28T09:42:04;7.25;;;4.57;;
50717;SDS011;60557;51.350;12.410;2023-04-28T09:44:32;8.38;;;6.07;;
50717;SDS011;60557;51.350;12.410;2023-04-28T09:46:58;10.10;;;4.57;;
50717;SDS011;60557;51.350;12.410;2023-04-28T09:49:27;13.20;;;5.75;;
50717;SDS011;60557;51.350;12.410;2023-04-28T09:51:53;9.65;;;5.20;;
50717;SDS011;60557;51.350;12.410;2023-04-28T09:54:20;10.70;;;5.68;;
50717;SDS011;60557;51.350;12.410;2023-04-28T09:56:48;10.45;;;5.38;;
50717;SDS011;60557;51.350;12.410;2023-04-28T09:59:15;9.82;;;5.40;;
50717;SDS011;60557;51.350;12.410;2023-04-28T10:01:43;18.00;;;7.53;;
50717;SDS011;60557;51.350;12.410;2023-04-28T10:04:10;11.88;;;5.43;;
50717;SDS011;60557;51.350;12.410;2023-04-28T10:06:36;15.32;;;6.03;;
50717;SDS011;60557;51.350;12.410;2023-04-28T10:09:04;12.25;;;5.28;;
50717;SDS011;60557;51.350;12.410;2023-04-28T10:11:32;8.50;;;5.30;;
50717;SDS011;60557;51.350;12.410;2023-04-28T10:13:59;10.30;;;5.90;;
50717;SDS011;60557;51.350;12.410;2023-04-28T10:16:25;12.65;;;7.00;;
50717;SDS011;60557;51.350;12.410;2023-04-28T10:18:57;12.50;;;6.90;;
50717;SDS011;60557;51.350;12.410;2023-04-28T10:21:23;11.55;;;5.90;;
50717;SDS011;60557;51.350;12.410;2023-04-28T10:27:11;12.15;;;5.97;;
50717;SDS011;60557;51.350;12.410;2023-04-28T10:29:11;12.30;;;5.90;;
50717;SDS011;60557;51.350;12.410;2023-04-28T10:31:42;10.18;;;6.07;;
50717;SDS011;60557;51.350;12.410;2023-04-28T10:34:26;8.85;;;5.47;;
50717;SDS011;60557;51.350;12.410;2023-04-28T10:36:53;10.13;;;6.43;;
50717;SDS011;60557;51.350;12.410;2023-04-28T10:39:19;9.23;;;5.45;;
50717;SDS011;60557;51.350;12.410;2023-04-28T10:41:46;11.32;;;6.15;;
50717;SDS011;60557;51.350;12.410;2023-04-28T10:44:39;10.95;;;5.97;;
50717;SDS011;60557;51.350;12.410;2023-04-28T10:47:08;16.42;;;5.93;;
50717;SDS011;60557;51.350;12.410;2023-04-28T10:57:46;10.77;;;5.53;;
50717;SDS011;60557;51.350;12.410;2023-04-28T11:03:31;9.57;;;6.13;;
50717;SDS011;60557;51.350;12.410;2023-04-28T11:08:40;10.98;;;5.70;;
50717;SDS011;60557;51.350;12.410;2023-04-28T11:11:16;11.43;;;5.63;;
50717;SDS011;60557;51.350;12.410;2023-04-28T11:13:42;9.88;;;6.50;;
50717;SDS011;60557;51.350;12.410;2023-04-28T11:16:14;12.18;;;5.35;;
50717;SDS011;60557;51.350;12.410;2023-04-28T11:21:07;11.35;;;5.97;;
50717;SDS011;60557;51.350;12.410;2023-04-28T11:23:33;10.90;;;6.03;;
50717;SDS011;60557;51.350;12.410;2023-04-28T11:25:59;8.75;;;5.95;;
50717;SDS011;60557;51.350;12.410;2023-04-28T11:28:28;10.93;;;5.30;;
50717;SDS011;60557;51.350;12.410;2023-04-28T11:31:09;14.00;;;6.60;;
50717;SDS011;60557;51.350;12.410;2023-04-28T11:33:35;9.63;;;6.00;;
50717;SDS011;60557;51.350;12.410;2023-04-28T11:36:02;9.35;;;6.13;;
50717;SDS011;60557;51.350;12.410;2023-04-28T11:38:28;13.48;;;6.10;;
50717;SDS011;60557;51.350;12.410;2023-04-28T11:40:55;9.07;;;6.70;;
50717;SDS011;60557;51.350;12.410;2023-04-28T11:43:30;8.55;;;5.80;;
50717;SDS011;60557;51.350;12.410;2023-04-28T11:45:56;11.70;;;6.15;;
50717;SDS011;60557;51.350;12.410;2023-04-28T11:48:22;7.93;;;5.70;;
50717;SDS011;60557;51.350;12.410;2023-04-28T11:50:48;8.77;;;5.22;;
50717;SDS011;60557;51.350;12.410;2023-04-28T11:53:14;10.98;;;6.28;;
50717;SDS011;60557;51.350;12.410;2023-04-28T11:55:40;10.43;;;5.50;;
50717;SDS011;60557;51.350;12.410;2023-04-28T11:58:24;8.43;;;5.43;;
50717;SDS011;60557;51.350;12.410;2023-04-28T12:01:10;9.93;;;5.43;;
50717;SDS011;60557;51.350;12.410;2023-04-28T12:03:43;8.77;;;5.60;;
50717;SDS011;60557;51.350;12.410;2023-04-28T12:06:09;13.10;;;6.30;;
50717;SDS011;60557;51.350;12.410;2023-04-28T12:08:35;11.20;;;6.65;;
50717;SDS011;60557;51.350;12.410;2023-04-28T12:11:10;10.25;;;5.88;;
50717;SDS011;60557;51.350;12.410;2023-04-28T12:13:39;8.77;;;5.05;;
50717;SDS011;60557;51.350;12.410;2023-04-28T12:16:06;7.57;;;4.80;;
50717;SDS011;60557;51.350;12.410;2023-04-28T12:18:33;10.18;;;5.72;;
50717;SDS011;60557;51.350;12.410;2023-04-28T12:21:00;9.68;;;5.60;;
50717;SDS011;60557;51.350;12.410;2023-04-28T12:23:33;9.48;;;4.85;;
50717;SDS011;60557;51.350;12.410;2023-04-28T12:25:59;12.30;;;6.47;;
50717;SDS011;60557;51.350;12.410;2023-04-28T12:28:38;8.60;;;5.35;;
50717;SDS011;60557;51.350;12.410;2023-04-28T12:31:06;7.55;;;5.95;;
50717;SDS011;60557;51.350;12.410;2023-04-28T12:33:35;8.37;;;4.90;;
50717;SDS011;60557;51.350;12.410;2023-04-28T12:36:02;9.73;;;4.70;;
50717;SDS011;60557;51.350;12.410;2023-04-28T12:38:30;7.50;;;4.85;;
50717;SDS011;60557;51.350;12.410;2023-04-28T12:40:56;12.25;;;4.93;;
50717;SDS011;60557;51.350;12.410;2023-04-28T12:43:23;6.35;;;4.45;;
50717;SDS011;60557;51.350;12.410;2023-04-28T12:45:53;7.22;;;4.40;;
50717;SDS011;60557;51.350;12.410;2023-04-28T12:48:20;7.15;;;4.95;;
50717;SDS011;60557;51.350;12.410;2023-04-28T12:50:52;7.60;;;4.55;;
50717;SDS011;60557;51.350;12.410;2023-04-28T12:53:18;6.40;;;4.53;;
50717;SDS011;60557;51.350;12.410;2023-04-28T12:55:44;10.25;;;4.72;;
50717;SDS011;60557;51.350;12.410;2023-04-28T12:58:15;6.07;;;4.80;;
50717;SDS011;60557;51.350;12.410;2023-04-28T13:00:42;7.97;;;4.50;;
50717;SDS011;60557;51.350;12.410;2023-04-28T13:03:11;10.50;;;4.70;;
50717;SDS011;60557;51.350;12.410;2023-04-28T13:05:37;10.38;;;5.72;;
50717;SDS011;60557;51.350;12.410;2023-04-28T13:08:03;9.20;;;4.68;;
50717;SDS011;60557;51.350;12.410;2023-04-28T13:10:29;7.40;;;5.35;;
50717;SDS011;60557;51.350;12.410;2023-04-28T13:12:55;9.38;;;4.80;;
50717;SDS011;60557;51.350;12.410;2023-04-28T13:15:21;7.28;;;4.75;;
50717;SDS011;60557;51.350;12.410;2023-04-28T13:17:47;8.68;;;4.85;;
50717;SDS011;60557;51.350;12.410;2023-04-28T13:20:13;8.32;;;4.95;;
50717;SDS011;60557;51.350;12.410;2023-04-28T13:22:39;11.30;;;4.45;;
50717;SDS011;60557;51.350;12.410;2023-04-28T13:25:06;7.97;;;4.82;;
50717;SDS011;60557;51.350;12.410;2023-04-28T13:27:32;9.82;;;3.60;;
50717;SDS011;60557;51.350;12.410;2023-04-28T13:30:01;11.13;;;5.28;;
50717;SDS011;60557;51.350;12.410;2023-04-28T13:32:27;7.88;;;4.35;;
50717;SDS011;60557;51.350;12.410;2023-04-28T13:34:56;12.05;;;4.35;;
50717;SDS011;60557;51.350;12.410;2023-04-28T13:37:22;15.48;;;4.60;;
50717;SDS011;60557;51.350;12.410;2023-04-28T13:39:48;8.70;;;3.83;;
50717;SDS011;60557;51.350;12.410;2023-04-28T13:42:14;9.55;;;4.00;;
50717;SDS011;60557;51.350;12.410;2023-04-28T13:44:40;6.85;;;3.83;;
50717;SDS011;60557;51.350;12.410;2023-04-28T13:47:12;8.43;;;3.90;;
50717;SDS011;60557;51.350;12.410;2023-04-28T13:49:38;6.18;;;3.22;;
50717;SDS011;60557;51.350;12.410;2023-04-28T13:52:04;9.32;;;4.38;;
50717;SDS011;60557;51.350;12.410;2023-04-28T13:54:33;6.85;;;3.65;;
50717;SDS011;60557;51.350;12.410;2023-04-28T13:56:59;9.40;;;4.72;;
50717;SDS011;60557;51.350;12.410;2023-04-28T13:59:25;5.90;;;3.50;;
50717;SDS011;60557;51.350;12.410;2023-04-28T14:01:51;6.50;;;3.80;;
50717;SDS011;60557;51.350;12.410;2023-04-28T14:04:20;5.40;;;4.00;;
50717;SDS011;60557;51.350;12.410;2023-04-28T14:06:46;10.23;;;3.93;;
50717;SDS011;60557;51.350;12.410;2023-04-28T14:09:14;5.15;;;3.20;;
50717;SDS011;60557;51.350;12.410;2023-04-28T14:11:43;4.72;;;3.50;;
50717;SDS011;60557;51.350;12.410;2023-04-28T14:14:10;5.45;;;3.33;;
50717;SDS011;60557;51.350;12.410;2023-04-28T14:16:38;8.02;;;3.35;;
50717;SDS011;60557;51.350;12.410;2023-04-28T14:19:05;6.50;;;3.67;;
50717;SDS011;60557;51.350;12.410;2023-04-28T14:21:31;3.70;;;3.13;;
50717;SDS011;60557;51.350;12.410;2023-04-28T14:23:58;5.85;;;3.20;;
50717;SDS011;60557;51.350;12.410;2023-04-28T14:26:24;5.65;;;3.33;;
50717;SDS011;60557;51.350;12.410;2023-04-28T14:28:50;6.05;;;3.70;;
50717;SDS011;60557;51.350;12.410;2023-04-28T14:31:16;8.88;;;3.20;;
50717;SDS011;60557;51.350;12.410;2023-04-28T14:33:44;5.72;;;3.40;;
50717;SDS011;60557;51.350;12.410;2023-04-28T14:36:10;8.55;;;3.83;;
50717;SDS011;60557;51.350;12.410;2023-04-28T14:38:37;6.82;;;3.65;;
50717;SDS011;60557;51.350;12.410;2023-04-28T14:41:03;5.90;;;3.35;;
50717;SDS011;60557;51.350;12.410;2023-04-28T14:43:42;12.23;;;4.47;;
50717;SDS011;60557;51.350;12.410;2023-04-28T14:46:11;7.68;;;3.55;;
50717;SDS011;60557;51.350;12.410;2023-04-28T14:48:37;5.45;;;3.38;;
50717;SDS011;60557;51.350;12.410;2023-04-28T14:51:06;5.93;;;3.53;;
50717;SDS011;60557;51.350;12.410;2023-04-28T14:53:32;8.63;;;3.97;;